sensor_id;sensor_type;location;lat;lon;timestamp;temperature;humidity
37002;DHT22;22913;51.910;8.374;2023-05-07T00:01:20;15.80;99.90
37002;DHT22;22913;51.910;8.374;2023-05-07T00:04:06;15.80;99.90
37002;DHT22;22913;51.910;8.374;2023-05-07T00:06:52;15.80;99.90
37002;DHT22;22913;51.910;8.374;2023-05-07T00:09:40;15.80;99.90
37002;DHT22;22913;51.910;8.374;2023-05-07T00:12:26;15.80;99.90
37002;DHT22;22913;51.910;8.374;2023-05-07T00:15:11;15.80;99.90
37002;DHT22;22913;51.910;8.374;2023-05-07T00:17:57;15.80;99.90
37002;DHT22;22913;51.910;8.374;2023-05-07T00:20:44;15.80;99.90
37002;DHT22;22913;51.910;8.374;2023-05-07T00:23:30;15.80;99.90
37002;DHT22;22913;51.910;8.374;2023-05-07T00:26:17;15.80;99.90
37002;DHT22;22913;51.910;8.374;2023-05-07T00:29:03;15.70;99.90
37002;DHT22;22913;51.910;8.374;2023-05-07T00:31:49;15.70;99.90
37002;DHT22;22913;51.910;8.374;2023-05-07T00:34:35;15.70;99.90
37002;DHT22;22913;51.910;8.374;2023-05-07T00:37:21;15.70;99.90
37002;DHT22;22913;51.910;8.374;2023-05-07T00:40:08;15.70;99.90
37002;DHT22;22913;51.910;8.374;2023-05-07T00:42:55;15.60;99.90
37002;DHT22;22913;51.910;8.374;2023-05-07T00:45:42;15.60;99.90
37002;DHT22;22913;51.910;8.374;2023-05-07T00:48:28;15.60;99.90
37002;DHT22;22913;51.910;8.374;2023-05-07T00:51:14;15.60;99.90
37002;DHT22;22913;51.910;8.374;2023-05-07T00:54:00;15.60;99.90
37002;DHT22;22913;51.910;8.374;2023-05-07T00:56:47;15.50;99.90
37002;DHT22;22913;51.910;8.374;2023-05-07T00:59:35;15.50;99.90
37002;DHT22;22913;51.910;8.374;2023-05-07T01:02:20;15.50;99.90
37002;DHT22;22913;51.910;8.374;2023-05-07T01:05:09;15.60;99.90
37002;DHT22;22913;51.910;8.374;2023-05-07T01:07:57;15.50;99.90
37002;DHT22;22913;51.910;8.374;2023-05-07T01:10:43;15.40;99.90
37002;DHT22;22913;51.910;8.374;2023-05-07T01:13:29;15.40;99.90
37002;DHT22;22913;51.910;8.374;2023-05-07T01:16:16;15.40;99.90
37002;DHT22;22913;51.910;8.374;2023-05-07T01:19:02;15.40;99.90
37002;DHT22;22913;51.910;8.374;2023-05-07T01:21:49;15.40;99.90
37002;DHT22;22913;51.910;8.374;2023-05-07T01:24:38;15.40;99.90
37002;DHT22;22913;51.910;8.374;2023-05-07T01:27:23;15.40;99.90
37002;DHT22;22913;51.910;8.374;2023-05-07T01:30:09;15.40;99.90
37002;DHT22;22913;51.910;8.374;2023-05-07T01:32:59;15.40;99.90
37002;DHT22;22913;51.910;8.374;2023-05-07T01:35:49;15.40;99.90
37002;DHT22;22913;51.910;8.374;2023-05-07T01:38:35;15.40;99.90
37002;DHT22;22913;51.910;8.374;2023-05-07T01:41:23;15.40;99.90
37002;DHT22;22913;51.910;8.374;2023-05-07T01:44:10;15.30;99.90
37002;DHT22;22913;51.910;8.374;2023-05-07T01:46:57;15.30;99.90
37002;DHT22;22913;51.910;8.374;2023-05-07T01:49:43;15.30;99.90
37002;DHT22;22913;51.910;8.374;2023-05-07T01:52:29;15.30;99.90
37002;DHT22;22913;51.910;8.374;2023-05-07T01:55:15;15.30;99.90
37002;DHT22;22913;51.910;8.374;2023-05-07T01:58:01;15.30;99.90
37002;DHT22;22913;51.910;8.374;2023-05-07T02:00:47;15.20;99.90
37002;DHT22;22913;51.910;8.374;2023-05-07T02:03:33;15.20;99.90
37002;DHT22;22913;51.910;8.374;2023-05-07T02:06:18;15.20;99.90
37002;DHT22;22913;51.910;8.374;2023-05-07T02:09:05;15.20;99.90
37002;DHT22;22913;51.910;8.374;2023-05-07T02:11:50;15.20;99.90
37002;DHT22;22913;51.910;8.374;2023-05-07T02:14:37;15.10;99.90
37002;DHT22;22913;51.910;8.374;2023-05-07T02:17:23;15.00;99.90
37002;DHT22;22913;51.910;8.374;2023-05-07T02:20:10;15.00;99.90
37002;DHT22;22913;51.910;8.374;2023-05-07T02:22:57;14.90;99.90
37002;DHT22;22913;51.910;8.374;2023-05-07T02:25:43;14.90;99.90
37002;DHT22;22913;51.910;8.374;2023-05-07T02:28:29;14.90;99.90
37002;DHT22;22913;51.910;8.374;2023-05-07T02:31:16;15.00;99.90
37002;DHT22;22913;51.910;8.374;2023-05-07T02:34:01;14.90;99.90
37002;DHT22;22913;51.910;8.374;2023-05-07T02:36:48;14.90;99.90
37002;DHT22;22913;51.910;8.374;2023-05-07T02:39:33;14.90;99.90
37002;DHT22;22913;51.910;8.374;2023-05-07T02:42:19;14.80;99.90
37002;DHT22;22913;51.910;8.374;2023-05-07T02:45:06;14.70;99.90
37002;DHT22;22913;51.910;8.374;2023-05-07T02:47:53;14.70;99.90
37002;DHT22;22913;51.910;8.374;2023-05-07T02:50:39;14.70;99.90
37002;DHT22;22913;51.910;8.374;2023-05-07T02:53:25;14.70;99.90
37002;DHT22;22913;51.910;8.374;2023-05-07T02:56:11;14.70;99.90
37002;DHT22;22913;51.910;8.374;2023-05-07T02:58:57;14.60;99.90
37002;DHT22;22913;51.910;8.374;2023-05-07T03:01:42;14.60;99.90
37002;DHT22;22913;51.910;8.374;2023-05-07T03:04:30;14.60;99.90
37002;DHT22;22913;51.910;8.374;2023-05-07T03:07:16;14.60;99.90
37002;DHT22;22913;51.910;8.374;2023-05-07T03:10:01;14.60;99.90
37002;DHT22;22913;51.910;8.374;2023-05-07T03:12:47;14.50;99.90
37002;DHT22;22913;51.910;8.374;2023-05-07T03:15:32;14.50;99.90
37002;DHT22;22913;51.910;8.374;2023-05-07T03:18:18;14.50;99.90
37002;DHT22;22913;51.910;8.374;2023-05-07T03:21:05;14.50;99.90
37002;DHT22;22913;51.910;8.374;2023-05-07T03:23:51;14.40;99.90
37002;DHT22;22913;51.910;8.374;2023-05-07T03:26:36;14.40;99.90
37002;DHT22;22913;51.910;8.374;2023-05-07T03:29:22;14.40;99.90
37002;DHT22;22913;51.910;8.374;2023-05-07T03:32:08;14.40;99.90
37002;DHT22;22913;51.910;8.374;2023-05-07T03:34:53;14.30;99.90
37002;DHT22;22913;51.910;8.374;2023-05-07T03:37:41;14.30;99.90
37002;DHT22;22913;51.910;8.374;2023-05-07T03:40:27;14.30;99.90
37002;DHT22;22913;51.910;8.374;2023-05-07T03:43:13;14.30;99.90
37002;DHT22;22913;51.910;8.374;2023-05-07T03:45:59;14.30;99.90
37002;DHT22;22913;51.910;8.374;2023-05-07T03:48:44;14.30;99.90
37002;DHT22;22913;51.910;8.374;2023-05-07T03:51:30;14.20;99.90
37002;DHT22;22913;51.910;8.374;2023-05-07T03:54:17;14.30;99.90
37002;DHT22;22913;51.910;8.374;2023-05-07T03:57:03;14.30;99.90
37002;DHT22;22913;51.910;8.374;2023-05-07T03:59:48;14.20;99.90
37002;DHT22;22913;51.910;8.374;2023-05-07T04:02:34;14.20;99.90
37002;DHT22;22913;51.910;8.374;2023-05-07T04:05:19;14.20;99.90
37002;DHT22;22913;51.910;8.374;2023-05-07T04:08:05;14.20;99.90
37002;DHT22;22913;51.910;8.374;2023-05-07T04:10:56;14.20;99.90
37002;DHT22;22913;51.910;8.374;2023-05-07T04:13:41;14.20;99.90
37002;DHT22;22913;51.910;8.374;2023-05-07T04:16:27;14.30;99.90
37002;DHT22;22913;51.910;8.374;2023-05-07T04:19:12;14.20;99.90
37002;DHT22;22913;51.910;8.374;2023-05-07T04:21:58;14.20;99.90
37002;DHT22;22913;51.910;8.374;2023-05-07T04:24:44;14.20;99.90
37002;DHT22;22913;51.910;8.374;2023-05-07T04:27:31;14.20;99.90
37002;DHT22;22913;51.910;8.374;2023-05-07T04:30:17;14.20;99.90
37002;DHT22;22913;51.910;8.374;2023-05-07T04:33:03;14.20;99.90
37002;DHT22;22913;51.910;8.374;2023-05-07T04:35:50;14.20;99.90
37002;DHT22;22913;51.910;8.374;2023-05-07T04:38:35;14.20;99.90
37002;DHT22;22913;51.910;8.374;2023-05-07T04:41:21;14.20;99.90
37002;DHT22;22913;51.910;8.374;2023-05-07T04:44:08;14.20;99.90
37002;DHT22;22913;51.910;8.374;2023-05-07T04:46:54;14.30;99.90
37002;DHT22;22913;51.910;8.374;2023-05-07T04:49:40;14.20;99.90
37002;DHT22;22913;51.910;8.374;2023-05-07T04:52:26;14.20;99.90
37002;DHT22;22913;51.910;8.374;2023-05-07T04:55:12;14.20;99.90
37002;DHT22;22913;51.910;8.374;2023-05-07T04:57:58;14.20;99.90
37002;DHT22;22913;51.910;8.374;2023-05-07T05:00:47;14.30;99.90
37002;DHT22;22913;51.910;8.374;2023-05-07T05:03:32;14.30;99.90
37002;DHT22;22913;51.910;8.374;2023-05-07T05:06:18;14.40;99.90
37002;DHT22;22913;51.910;8.374;2023-05-07T05:09:03;14.30;99.90
37002;DHT22;22913;51.910;8.374;2023-05-07T05:11:50;14.40;99.90
37002;DHT22;22913;51.910;8.374;2023-05-07T05:14:35;14.30;99.90
37002;DHT22;22913;51.910;8.374;2023-05-07T05:17:22;14.30;99.90
37002;DHT22;22913;51.910;8.374;2023-05-07T05:20:08;14.30;99.90
37002;DHT22;22913;51.910;8.374;2023-05-07T05:22:55;14.40;99.90
37002;DHT22;22913;51.910;8.374;2023-05-07T05:25:40;14.40;99.90
37002;DHT22;22913;51.910;8.374;2023-05-07T05:28:26;14.40;99.90
37002;DHT22;22913;51.910;8.374;2023-05-07T05:31:12;14.40;99.90
37002;DHT22;22913;51.910;8.374;2023-05-07T05:33:59;14.50;99.90
37002;DHT22;22913;51.910;8.374;2023-05-07T05:36:45;14.50;99.90
37002;DHT22;22913;51.910;8.374;2023-05-07T05:39:31;14.50;99.90
37002;DHT22;22913;51.910;8.374;2023-05-07T05:42:17;14.50;99.90
37002;DHT22;22913;51.910;8.374;2023-05-07T05:45:04;14.50;99.90
37002;DHT22;22913;51.910;8.374;2023-05-07T05:47:50;14.60;99.90
37002;DHT22;22913;51.910;8.374;2023-05-07T05:50:37;14.70;99.90
37002;DHT22;22913;51.910;8.374;2023-05-07T05:53:23;14.60;99.90
37002;DHT22;22913;51.910;8.374;2023-05-07T05:56:08;14.70;99.90
37002;DHT22;22913;51.910;8.374;2023-05-07T05:58:54;14.60;99.90
37002;DHT22;22913;51.910;8.374;2023-05-07T06:01:41;14.50;99.90
37002;DHT22;22913;51.910;8.374;2023-05-07T06:04:27;14.60;99.90
37002;DHT22;22913;51.910;8.374;2023-05-07T06:07:15;14.70;99.90
37002;DHT22;22913;51.910;8.374;2023-05-07T06:10:02;14.80;99.90
37002;DHT22;22913;51.910;8.374;2023-05-07T06:12:47;14.90;99.90
37002;DHT22;22913;51.910;8.374;2023-05-07T06:15:33;14.90;99.90
37002;DHT22;22913;51.910;8.374;2023-05-07T06:18:19;14.80;99.90
37002;DHT22;22913;51.910;8.374;2023-05-07T06:21:05;14.80;99.90
37002;DHT22;22913;51.910;8.374;2023-05-07T06:23:52;14.80;99.90
37002;DHT22;22913;51.910;8.374;2023-05-07T06:26:39;14.90;99.90
37002;DHT22;22913;51.910;8.374;2023-05-07T06:29:25;15.00;99.90
37002;DHT22;22913;51.910;8.374;2023-05-07T06:32:12;15.00;99.90
37002;DHT22;22913;51.910;8.374;2023-05-07T06:34:58;15.00;99.90
37002;DHT22;22913;51.910;8.374;2023-05-07T06:37:44;15.00;99.90
37002;DHT22;22913;51.910;8.374;2023-05-07T06:40:31;14.90;99.90
37002;DHT22;22913;51.910;8.374;2023-05-07T06:43:17;14.90;99.90
37002;DHT22;22913;51.910;8.374;2023-05-07T06:46:03;14.80;99.90
37002;DHT22;22913;51.910;8.374;2023-05-07T06:48:49;14.70;99.90
37002;DHT22;22913;51.910;8.374;2023-05-07T06:51:36;14.80;99.90
37002;DHT22;22913;51.910;8.374;2023-05-07T06:54:22;14.90;99.90
37002;DHT22;22913;51.910;8.374;2023-05-07T06:57:09;14.80;99.90
37002;DHT22;22913;51.910;8.374;2023-05-07T06:59:55;14.90;99.90
37002;DHT22;22913;51.910;8.374;2023-05-07T07:02:41;15.00;99.90
37002;DHT22;22913;51.910;8.374;2023-05-07T07:05:27;15.10;99.90
37002;DHT22;22913;51.910;8.374;2023-05-07T07:08:13;15.20;99.90
37002;DHT22;22913;51.910;8.374;2023-05-07T07:10:59;15.30;99.90
37002;DHT22;22913;51.910;8.374;2023-05-07T07:13:47;15.30;99.90
37002;DHT22;22913;51.910;8.374;2023-05-07T07:16:32;15.40;99.90
37002;DHT22;22913;51.910;8.374;2023-05-07T07:19:19;15.40;99.90
37002;DHT22;22913;51.910;8.374;2023-05-07T07:22:05;15.50;99.90
37002;DHT22;22913;51.910;8.374;2023-05-07T07:24:50;15.60;99.90
37002;DHT22;22913;51.910;8.374;2023-05-07T07:27:36;15.60;99.90
37002;DHT22;22913;51.910;8.374;2023-05-07T07:30:25;15.70;99.90
37002;DHT22;22913;51.910;8.374;2023-05-07T07:33:11;15.80;99.90
37002;DHT22;22913;51.910;8.374;2023-05-07T07:35:57;15.90;99.90
37002;DHT22;22913;51.910;8.374;2023-05-07T07:38:42;15.90;99.90
37002;DHT22;22913;51.910;8.374;2023-05-07T07:41:28;15.90;99.90
37002;DHT22;22913;51.910;8.374;2023-05-07T07:44:13;15.90;99.90
37002;DHT22;22913;51.910;8.374;2023-05-07T07:47:00;16.00;99.90
37002;DHT22;22913;51.910;8.374;2023-05-07T07:49:46;16.10;99.90
37002;DHT22;22913;51.910;8.374;2023-05-07T07:52:31;16.10;99.90
37002;DHT22;22913;51.910;8.374;2023-05-07T07:55:20;16.10;99.90
37002;DHT22;22913;51.910;8.374;2023-05-07T07:58:07;16.10;99.90
37002;DHT22;22913;51.910;8.374;2023-05-07T08:00:52;16.10;99.90
37002;DHT22;22913;51.910;8.374;2023-05-07T08:03:41;16.20;99.90
37002;DHT22;22913;51.910;8.374;2023-05-07T08:06:27;16.10;99.90
37002;DHT22;22913;51.910;8.374;2023-05-07T08:09:12;16.30;99.90
37002;DHT22;22913;51.910;8.374;2023-05-07T08:11:58;16.40;99.90
37002;DHT22;22913;51.910;8.374;2023-05-07T08:14:45;16.50;99.90
37002;DHT22;22913;51.910;8.374;2023-05-07T08:17:30;16.70;99.90
37002;DHT22;22913;51.910;8.374;2023-05-07T08:20:18;16.80;99.90
37002;DHT22;22913;51.910;8.374;2023-05-07T08:23:03;16.90;99.90
37002;DHT22;22913;51.910;8.374;2023-05-07T08:25:50;17.00;99.90
37002;DHT22;22913;51.910;8.374;2023-05-07T08:28:36;17.10;99.90
37002;DHT22;22913;51.910;8.374;2023-05-07T08:31:22;17.20;99.90
37002;DHT22;22913;51.910;8.374;2023-05-07T08:34:08;17.30;99.90
37002;DHT22;22913;51.910;8.374;2023-05-07T08:36:55;17.40;99.90
37002;DHT22;22913;51.910;8.374;2023-05-07T08:39:40;17.40;99.90
37002;DHT22;22913;51.910;8.374;2023-05-07T08:42:27;17.60;99.90
37002;DHT22;22913;51.910;8.374;2023-05-07T08:45:14;17.80;99.90
37002;DHT22;22913;51.910;8.374;2023-05-07T08:48:02;17.90;99.90
37002;DHT22;22913;51.910;8.374;2023-05-07T08:50:50;18.10;99.90
37002;DHT22;22913;51.910;8.374;2023-05-07T08:53:40;18.00;99.90
37002;DHT22;22913;51.910;8.374;2023-05-07T08:56:25;18.00;99.90
37002;DHT22;22913;51.910;8.374;2023-05-07T08:59:11;17.90;99.90
37002;DHT22;22913;51.910;8.374;2023-05-07T09:01:57;18.00;99.90
37002;DHT22;22913;51.910;8.374;2023-05-07T09:04:42;18.10;99.90
37002;DHT22;22913;51.910;8.374;2023-05-07T09:07:28;18.10;99.90
37002;DHT22;22913;51.910;8.374;2023-05-07T09:10:16;18.20;99.90
37002;DHT22;22913;51.910;8.374;2023-05-07T09:13:03;18.20;99.90
37002;DHT22;22913;51.910;8.374;2023-05-07T09:15:48;18.20;99.90
37002;DHT22;22913;51.910;8.374;2023-05-07T09:18:34;18.30;99.90
37002;DHT22;22913;51.910;8.374;2023-05-07T09:21:20;18.40;99.90
37002;DHT22;22913;51.910;8.374;2023-05-07T09:24:07;18.60;99.90
37002;DHT22;22913;51.910;8.374;2023-05-07T09:26:54;18.80;99.90
37002;DHT22;22913;51.910;8.374;2023-05-07T09:29:40;18.90;99.90
37002;DHT22;22913;51.910;8.374;2023-05-07T09:32:26;18.90;99.90
37002;DHT22;22913;51.910;8.374;2023-05-07T09:35:14;18.70;99.90
37002;DHT22;22913;51.910;8.374;2023-05-07T09:38:01;18.90;99.90
37002;DHT22;22913;51.910;8.374;2023-05-07T09:40:47;19.10;99.90
37002;DHT22;22913;51.910;8.374;2023-05-07T09:43:34;19.10;99.90
37002;DHT22;22913;51.910;8.374;2023-05-07T09:46:25;19.00;99.90
37002;DHT22;22913;51.910;8.374;2023-05-07T09:49:21;19.10;99.90
37002;DHT22;22913;51.910;8.374;2023-05-07T09:52:06;19.10;99.90
37002;DHT22;22913;51.910;8.374;2023-05-07T09:54:55;19.00;99.90
37002;DHT22;22913;51.910;8.374;2023-05-07T09:57:43;19.10;99.90
37002;DHT22;22913;51.910;8.374;2023-05-07T10:00:31;19.00;99.90
37002;DHT22;22913;51.910;8.374;2023-05-07T10:03:19;18.90;99.90
37002;DHT22;22913;51.910;8.374;2023-05-07T10:06:05;19.10;99.90
37002;DHT22;22913;51.910;8.374;2023-05-07T10:08:51;19.40;99.90
37002;DHT22;22913;51.910;8.374;2023-05-07T10:11:37;19.50;99.90
37002;DHT22;22913;51.910;8.374;2023-05-07T10:14:23;19.50;99.90
37002;DHT22;22913;51.910;8.374;2023-05-07T10:17:11;19.70;99.90
37002;DHT22;22913;51.910;8.374;2023-05-07T10:19:57;19.80;99.90
37002;DHT22;22913;51.910;8.374;2023-05-07T10:22:44;19.90;99.90
37002;DHT22;22913;51.910;8.374;2023-05-07T10:25:31;19.80;99.90
37002;DHT22;22913;51.910;8.374;2023-05-07T10:28:18;19.80;99.90
37002;DHT22;22913;51.910;8.374;2023-05-07T10:31:14;19.90;99.90
37002;DHT22;22913;51.910;8.374;2023-05-07T10:34:08;20.00;99.90
37002;DHT22;22913;51.910;8.374;2023-05-07T10:36:55;19.90;99.90
37002;DHT22;22913;51.910;8.374;2023-05-07T10:39:41;20.20;99.90
37002;DHT22;22913;51.910;8.374;2023-05-07T10:42:26;20.40;99.90
37002;DHT22;22913;51.910;8.374;2023-05-07T10:45:13;20.50;99.90
37002;DHT22;22913;51.910;8.374;2023-05-07T10:48:11;20.80;99.90
37002;DHT22;22913;51.910;8.374;2023-05-07T10:51:22;20.90;99.90
37002;DHT22;22913;51.910;8.374;2023-05-07T10:54:23;20.90;99.90
37002;DHT22;22913;51.910;8.374;2023-05-07T10:57:34;21.00;99.90
37002;DHT22;22913;51.910;8.374;2023-05-07T11:00:41;21.30;99.90
37002;DHT22;22913;51.910;8.374;2023-05-07T11:03:28;21.30;99.90
37002;DHT22;22913;51.910;8.374;2023-05-07T11:06:15;21.40;99.90
37002;DHT22;22913;51.910;8.374;2023-05-07T11:09:03;21.30;99.90
37002;DHT22;22913;51.910;8.374;2023-05-07T11:11:50;21.60;99.90
37002;DHT22;22913;51.910;8.374;2023-05-07T11:14:45;21.90;99.90
37002;DHT22;22913;51.910;8.374;2023-05-07T11:17:32;21.80;99.90
37002;DHT22;22913;51.910;8.374;2023-05-07T11:20:18;22.10;99.90
37002;DHT22;22913;51.910;8.374;2023-05-07T11:23:04;22.40;99.90
37002;DHT22;22913;51.910;8.374;2023-05-07T11:25:51;22.70;99.90
37002;DHT22;22913;51.910;8.374;2023-05-07T11:28:43;22.80;99.90
37002;DHT22;22913;51.910;8.374;2023-05-07T11:31:29;22.80;99.90
37002;DHT22;22913;51.910;8.374;2023-05-07T11:34:21;23.20;99.90
37002;DHT22;22913;51.910;8.374;2023-05-07T11:37:06;23.20;99.90
37002;DHT22;22913;51.910;8.374;2023-05-07T11:40:02;23.40;99.90
37002;DHT22;22913;51.910;8.374;2023-05-07T11:42:51;23.70;99.90
37002;DHT22;22913;51.910;8.374;2023-05-07T11:45:37;23.90;99.90
37002;DHT22;22913;51.910;8.374;2023-05-07T11:48:22;24.20;99.90
37002;DHT22;22913;51.910;8.374;2023-05-07T11:51:08;24.50;99.90
37002;DHT22;22913;51.910;8.374;2023-05-07T11:53:56;24.70;99.90
37002;DHT22;22913;51.910;8.374;2023-05-07T11:56:42;24.90;99.90
37002;DHT22;22913;51.910;8.374;2023-05-07T11:59:29;25.20;99.90
37002;DHT22;22913;51.910;8.374;2023-05-07T12:02:15;25.40;99.90
37002;DHT22;22913;51.910;8.374;2023-05-07T12:05:00;25.50;99.90
37002;DHT22;22913;51.910;8.374;2023-05-07T12:07:46;25.20;99.90
37002;DHT22;22913;51.910;8.374;2023-05-07T12:10:32;24.80;99.90
37002;DHT22;22913;51.910;8.374;2023-05-07T12:13:19;25.10;99.90
37002;DHT22;22913;51.910;8.374;2023-05-07T12:16:07;24.40;99.90
37002;DHT22;22913;51.910;8.374;2023-05-07T12:18:53;24.20;99.90
37002;DHT22;22913;51.910;8.374;2023-05-07T12:21:40;24.60;99.90
37002;DHT22;22913;51.910;8.374;2023-05-07T12:24:25;25.00;99.90
37002;DHT22;22913;51.910;8.374;2023-05-07T12:27:11;25.60;99.90
37002;DHT22;22913;51.910;8.374;2023-05-07T12:29:58;25.90;99.90
37002;DHT22;22913;51.910;8.374;2023-05-07T12:32:46;25.50;99.90
37002;DHT22;22913;51.910;8.374;2023-05-07T12:35:35;25.20;99.90
37002;DHT22;22913;51.910;8.374;2023-05-07T12:38:23;25.30;99.90
37002;DHT22;22913;51.910;8.374;2023-05-07T12:41:10;25.70;99.90
37002;DHT22;22913;51.910;8.374;2023-05-07T12:43:56;26.20;99.90
37002;DHT22;22913;51.910;8.374;2023-05-07T12:46:42;26.50;99.90
37002;DHT22;22913;51.910;8.374;2023-05-07T12:49:30;26.70;99.90
37002;DHT22;22913;51.910;8.374;2023-05-07T12:52:15;26.90;99.90
37002;DHT22;22913;51.910;8.374;2023-05-07T12:55:04;27.30;99.90
37002;DHT22;22913;51.910;8.374;2023-05-07T12:57:51;27.30;99.90
37002;DHT22;22913;51.910;8.374;2023-05-07T13:00:38;27.10;99.90
37002;DHT22;22913;51.910;8.374;2023-05-07T13:03:25;26.70;99.90
37002;DHT22;22913;51.910;8.374;2023-05-07T13:06:13;26.90;99.90
37002;DHT22;22913;51.910;8.374;2023-05-07T13:08:58;27.10;99.90
37002;DHT22;22913;51.910;8.374;2023-05-07T13:11:44;27.20;99.90
37002;DHT22;22913;51.910;8.374;2023-05-07T13:14:30;27.90;99.90
37002;DHT22;22913;51.910;8.374;2023-05-07T13:17:16;28.20;99.90
37002;DHT22;22913;51.910;8.374;2023-05-07T13:20:03;29.00;99.90
37002;DHT22;22913;51.910;8.374;2023-05-07T13:22:50;29.50;99.90
37002;DHT22;22913;51.910;8.374;2023-05-07T13:25:36;30.20;99.90
37002;DHT22;22913;51.910;8.374;2023-05-07T13:28:22;30.10;99.90
37002;DHT22;22913;51.910;8.374;2023-05-07T13:31:08;30.20;99.90
37002;DHT22;22913;51.910;8.374;2023-05-07T13:33:53;30.00;99.90
37002;DHT22;22913;51.910;8.374;2023-05-07T13:36:40;29.70;99.90
37002;DHT22;22913;51.910;8.374;2023-05-07T13:39:27;29.50;99.90
37002;DHT22;22913;51.910;8.374;2023-05-07T13:42:13;29.50;99.90
37002;DHT22;22913;51.910;8.374;2023-05-07T13:44:58;29.70;99.90
37002;DHT22;22913;51.910;8.374;2023-05-07T13:47:45;29.20;99.90
37002;DHT22;22913;51.910;8.374;2023-05-07T13:50:31;28.60;99.90
37002;DHT22;22913;51.910;8.374;2023-05-07T13:53:17;27.80;99.90
37002;DHT22;22913;51.910;8.374;2023-05-07T13:56:04;27.30;99.90
37002;DHT22;22913;51.910;8.374;2023-05-07T13:58:50;27.30;99.90
37002;DHT22;22913;51.910;8.374;2023-05-07T14:01:36;27.10;99.90
37002;DHT22;22913;51.910;8.374;2023-05-07T14:04:22;27.40;99.90
37002;DHT22;22913;51.910;8.374;2023-05-07T14:07:07;27.70;99.90
37002;DHT22;22913;51.910;8.374;2023-05-07T14:09:53;27.90;99.90
37002;DHT22;22913;51.910;8.374;2023-05-07T14:12:40;27.70;99.90
37002;DHT22;22913;51.910;8.374;2023-05-07T14:15:26;27.10;99.90
37002;DHT22;22913;51.910;8.374;2023-05-07T14:18:11;27.00;99.90
37002;DHT22;22913;51.910;8.374;2023-05-07T14:20:57;26.60;99.90
37002;DHT22;22913;51.910;8.374;2023-05-07T14:23:43;26.50;99.90
37002;DHT22;22913;51.910;8.374;2023-05-07T14:26:28;26.40;99.90
37002;DHT22;22913;51.910;8.374;2023-05-07T14:29:16;26.20;99.90
37002;DHT22;22913;51.910;8.374;2023-05-07T14:32:03;26.10;99.90
37002;DHT22;22913;51.910;8.374;2023-05-07T14:34:49;25.60;99.90
37002;DHT22;22913;51.910;8.374;2023-05-07T14:37:35;25.40;99.90
37002;DHT22;22913;51.910;8.374;2023-05-07T14:40:21;25.30;99.90
37002;DHT22;22913;51.910;8.374;2023-05-07T14:43:06;25.10;99.90
37002;DHT22;22913;51.910;8.374;2023-05-07T14:45:54;24.80;99.90
37002;DHT22;22913;51.910;8.374;2023-05-07T14:48:39;24.80;99.90
37002;DHT22;22913;51.910;8.374;2023-05-07T14:51:25;24.40;99.90
37002;DHT22;22913;51.910;8.374;2023-05-07T14:54:12;24.60;99.90
37002;DHT22;22913;51.910;8.374;2023-05-07T14:56:58;24.50;99.90
37002;DHT22;22913;51.910;8.374;2023-05-07T14:59:44;24.10;99.90
37002;DHT22;22913;51.910;8.374;2023-05-07T15:02:32;23.90;99.90
37002;DHT22;22913;51.910;8.374;2023-05-07T15:05:17;23.80;99.90
37002;DHT22;22913;51.910;8.374;2023-05-07T15:08:04;23.80;99.90
37002;DHT22;22913;51.910;8.374;2023-05-07T15:10:49;23.60;99.90
37002;DHT22;22913;51.910;8.374;2023-05-07T15:13:35;23.60;99.90
37002;DHT22;22913;51.910;8.374;2023-05-07T15:16:21;23.70;99.90
37002;DHT22;22913;51.910;8.374;2023-05-07T15:19:08;23.70;99.90
37002;DHT22;22913;51.910;8.374;2023-05-07T15:21:53;23.90;99.90
37002;DHT22;22913;51.910;8.374;2023-05-07T15:24:40;23.50;99.90
37002;DHT22;22913;51.910;8.374;2023-05-07T15:27:26;23.00;99.90
37002;DHT22;22913;51.910;8.374;2023-05-07T15:30:13;23.00;99.90
37002;DHT22;22913;51.910;8.374;2023-05-07T15:33:00;23.10;99.90
37002;DHT22;22913;51.910;8.374;2023-05-07T15:35:48;23.10;99.90
37002;DHT22;22913;51.910;8.374;2023-05-07T15:38:34;23.00;99.90
37002;DHT22;22913;51.910;8.374;2023-05-07T15:41:20;23.20;99.90
37002;DHT22;22913;51.910;8.374;2023-05-07T15:44:06;23.30;99.90
37002;DHT22;22913;51.910;8.374;2023-05-07T15:46:51;23.30;99.90
37002;DHT22;22913;51.910;8.374;2023-05-07T15:49:37;23.40;99.90
37002;DHT22;22913;51.910;8.374;2023-05-07T15:52:24;23.40;99.90
37002;DHT22;22913;51.910;8.374;2023-05-07T15:55:11;23.30;99.90
37002;DHT22;22913;51.910;8.374;2023-05-07T15:57:57;23.30;99.90
37002;DHT22;22913;51.910;8.374;2023-05-07T16:00:43;23.20;99.90
37002;DHT22;22913;51.910;8.374;2023-05-07T16:03:28;22.90;99.90
37002;DHT22;22913;51.910;8.374;2023-05-07T16:06:14;22.90;99.90
37002;DHT22;22913;51.910;8.374;2023-05-07T16:09:01;22.70;99.90
37002;DHT22;22913;51.910;8.374;2023-05-07T16:11:48;22.60;99.90
37002;DHT22;22913;51.910;8.374;2023-05-07T16:14:33;22.40;99.90
37002;DHT22;22913;51.910;8.374;2023-05-07T16:17:19;22.10;99.90
37002;DHT22;22913;51.910;8.374;2023-05-07T16:20:05;21.80;99.90
37002;DHT22;22913;51.910;8.374;2023-05-07T16:22:52;21.80;99.90
37002;DHT22;22913;51.910;8.374;2023-05-07T16:25:39;21.90;99.90
37002;DHT22;22913;51.910;8.374;2023-05-07T16:28:24;21.90;99.90
37002;DHT22;22913;51.910;8.374;2023-05-07T16:31:10;21.90;99.90
37002;DHT22;22913;51.910;8.374;2023-05-07T16:33:56;22.00;99.90
37002;DHT22;22913;51.910;8.374;2023-05-07T16:36:41;22.10;99.90
37002;DHT22;22913;51.910;8.374;2023-05-07T16:39:27;22.10;99.90
37002;DHT22;22913;51.910;8.374;2023-05-07T16:42:14;21.90;99.90
37002;DHT22;22913;51.910;8.374;2023-05-07T16:45:00;21.60;99.90
37002;DHT22;22913;51.910;8.374;2023-05-07T16:47:45;21.60;99.90
37002;DHT22;22913;51.910;8.374;2023-05-07T16:50:31;21.50;99.90
37002;DHT22;22913;51.910;8.374;2023-05-07T16:53:17;21.50;99.90
37002;DHT22;22913;51.910;8.374;2023-05-07T16:56:04;21.40;99.90
37002;DHT22;22913;51.910;8.374;2023-05-07T16:58:51;21.40;99.90
37002;DHT22;22913;51.910;8.374;2023-05-07T17:01:37;21.50;99.90
37002;DHT22;22913;51.910;8.374;2023-05-07T17:04:23;21.40;99.90
37002;DHT22;22913;51.910;8.374;2023-05-07T17:07:09;21.40;99.90
37002;DHT22;22913;51.910;8.374;2023-05-07T17:09:54;21.40;99.90
37002;DHT22;22913;51.910;8.374;2023-05-07T17:12:40;21.30;99.90
37002;DHT22;22913;51.910;8.374;2023-05-07T17:15:28;21.10;99.90
37002;DHT22;22913;51.910;8.374;2023-05-07T17:18:14;20.90;99.90
37002;DHT22;22913;51.910;8.374;2023-05-07T17:20:59;20.90;99.90
37002;DHT22;22913;51.910;8.374;2023-05-07T17:23:45;21.00;99.90
37002;DHT22;22913;51.910;8.374;2023-05-07T17:26:31;20.90;99.90
37002;DHT22;22913;51.910;8.374;2023-05-07T17:29:19;20.80;99.90
37002;DHT22;22913;51.910;8.374;2023-05-07T17:32:06;20.80;99.90